sensor_id;sensor_type;location;lat;lon;timestamp;temperature;humidity
57410;DHT22;46044;44.738;20.394;2022-09-09T00:01:07;20.00;86.00
57410;DHT22;46044;44.738;20.394;2022-09-09T00:03:45;20.00;86.00
57410;DHT22;46044;44.738;20.394;2022-09-09T00:06:21;20.00;86.00
57410;DHT22;46044;44.738;20.394;2022-09-09T00:11:43;20.00;87.00
57410;DHT22;46044;44.738;20.394;2022-09-09T00:14:16;20.00;87.00
57410;DHT22;46044;44.738;20.394;2022-09-09T00:16:49;21.00;86.00
57410;DHT22;46044;44.738;20.394;2022-09-09T00:19:33;21.00;86.00
57410;DHT22;46044;44.738;20.394;2022-09-09T00:22:27;21.00;85.00
57410;DHT22;46044;44.738;20.394;2022-09-09T00:24:57;21.00;86.00
57410;DHT22;46044;44.738;20.394;2022-09-09T00:27:41;21.00;86.00
57410;DHT22;46044;44.738;20.394;2022-09-09T00:32:49;21.00;85.00
57410;DHT22;46044;44.738;20.394;2022-09-09T00:37:54;21.00;84.00
57410;DHT22;46044;44.738;20.394;2022-09-09T00:40:39;22.00;85.00
57410;DHT22;46044;44.738;20.394;2022-09-09T00:43:30;21.00;84.00
57410;DHT22;46044;44.738;20.394;2022-09-09T00:51:42;21.00;84.00
57410;DHT22;46044;44.738;20.394;2022-09-09T00:57:46;21.00;83.00
57410;DHT22;46044;44.738;20.394;2022-09-09T01:05:46;21.00;83.00
57410;DHT22;46044;44.738;20.394;2022-09-09T01:08:46;21.00;84.00
57410;DHT22;46044;44.738;20.394;2022-09-09T01:17:04;21.00;85.00
57410;DHT22;46044;44.738;20.394;2022-09-09T01:19:45;21.00;86.00
57410;DHT22;46044;44.738;20.394;2022-09-09T01:22:29;21.00;86.00
57410;DHT22;46044;44.738;20.394;2022-09-09T01:28:08;21.00;86.00
57410;DHT22;46044;44.738;20.394;2022-09-09T01:30:39;21.00;86.00
57410;DHT22;46044;44.738;20.394;2022-09-09T01:33:15;21.00;86.00
57410;DHT22;46044;44.738;20.394;2022-09-09T01:35:48;21.00;86.00
57410;DHT22;46044;44.738;20.394;2022-09-09T01:38:31;21.00;86.00
57410;DHT22;46044;44.738;20.394;2022-09-09T01:40:58;21.00;85.00
57410;DHT22;46044;44.738;20.394;2022-09-09T01:43:33;21.00;85.00
57410;DHT22;46044;44.738;20.394;2022-09-09T01:46:01;21.00;85.00
57410;DHT22;46044;44.738;20.394;2022-09-09T01:48:29;21.00;85.00
57410;DHT22;46044;44.738;20.394;2022-09-09T01:51:03;21.00;84.00
57410;DHT22;46044;44.738;20.394;2022-09-09T01:53:29;22.00;84.00
57410;DHT22;46044;44.738;20.394;2022-09-09T02:01:46;22.00;84.00
57410;DHT22;46044;44.738;20.394;2022-09-09T02:04:45;21.00;83.00
57410;DHT22;46044;44.738;20.394;2022-09-09T02:10:21;21.00;85.00
57410;DHT22;46044;44.738;20.394;2022-09-09T02:13:07;21.00;85.00
57410;DHT22;46044;44.738;20.394;2022-09-09T02:18:32;21.00;86.00
57410;DHT22;46044;44.738;20.394;2022-09-09T02:21:02;21.00;86.00
57410;DHT22;46044;44.738;20.394;2022-09-09T02:23:31;20.00;85.00
57410;DHT22;46044;44.738;20.394;2022-09-09T02:25:59;20.00;86.00
57410;DHT22;46044;44.738;20.394;2022-09-09T02:28:29;20.00;86.00
57410;DHT22;46044;44.738;20.394;2022-09-09T02:30:56;20.00;86.00
57410;DHT22;46044;44.738;20.394;2022-09-09T02:33:35;20.00;87.00
57410;DHT22;46044;44.738;20.394;2022-09-09T02:36:03;20.00;88.00
57410;DHT22;46044;44.738;20.394;2022-09-09T02:38:36;20.00;88.00
57410;DHT22;46044;44.738;20.394;2022-09-09T02:41:08;20.00;88.00
57410;DHT22;46044;44.738;20.394;2022-09-09T02:43:35;20.00;88.00
57410;DHT22;46044;44.738;20.394;2022-09-09T02:49:17;20.00;88.00
57410;DHT22;46044;44.738;20.394;2022-09-09T02:52:00;20.00;88.00
57410;DHT22;46044;44.738;20.394;2022-09-09T02:54:34;20.00;88.00
57410;DHT22;46044;44.738;20.394;2022-09-09T02:59:39;20.00;88.00
57410;DHT22;46044;44.738;20.394;2022-09-09T03:02:05;20.00;88.00
57410;DHT22;46044;44.738;20.394;2022-09-09T03:04:33;20.00;88.00
57410;DHT22;46044;44.738;20.394;2022-09-09T03:06:59;20.00;88.00
57410;DHT22;46044;44.738;20.394;2022-09-09T03:09:25;20.00;88.00
57410;DHT22;46044;44.738;20.394;2022-09-09T03:11:52;20.00;89.00
57410;DHT22;46044;44.738;20.394;2022-09-09T03:14:21;20.00;89.00
57410;DHT22;46044;44.738;20.394;2022-09-09T03:16:51;20.00;89.00
57410;DHT22;46044;44.738;20.394;2022-09-09T03:19:18;20.00;89.00
57410;DHT22;46044;44.738;20.394;2022-09-09T03:21:46;20.00;88.00
57410;DHT22;46044;44.738;20.394;2022-09-09T03:24:13;20.00;88.00
57410;DHT22;46044;44.738;20.394;2022-09-09T03:26:40;20.00;89.00
57410;DHT22;46044;44.738;20.394;2022-09-09T03:29:10;20.00;89.00
57410;DHT22;46044;44.738;20.394;2022-09-09T03:31:37;20.00;89.00
57410;DHT22;46044;44.738;20.394;2022-09-09T03:34:03;21.00;90.00
57410;DHT22;46044;44.738;20.394;2022-09-09T03:36:33;21.00;90.00
57410;DHT22;46044;44.738;20.394;2022-09-09T03:38:59;21.00;89.00
57410;DHT22;46044;44.738;20.394;2022-09-09T03:41:29;21.00;89.00
57410;DHT22;46044;44.738;20.394;2022-09-09T03:43:57;21.00;88.00
57410;DHT22;46044;44.738;20.394;2022-09-09T03:46:26;21.00;87.00
57410;DHT22;46044;44.738;20.394;2022-09-09T03:48:53;21.00;87.00
57410;DHT22;46044;44.738;20.394;2022-09-09T03:51:19;21.00;87.00
57410;DHT22;46044;44.738;20.394;2022-09-09T03:53:46;21.00;87.00
57410;DHT22;46044;44.738;20.394;2022-09-09T03:56:12;21.00;86.00
57410;DHT22;46044;44.738;20.394;2022-09-09T03:58:38;22.00;86.00
57410;DHT22;46044;44.738;20.394;2022-09-09T04:01:09;22.00;85.00
57410;DHT22;46044;44.738;20.394;2022-09-09T04:03:37;22.00;86.00
57410;DHT22;46044;44.738;20.394;2022-09-09T04:06:05;22.00;86.00
57410;DHT22;46044;44.738;20.394;2022-09-09T04:08:32;21.00;86.00
57410;DHT22;46044;44.738;20.394;2022-09-09T04:10:59;21.00;87.00
57410;DHT22;46044;44.738;20.394;2022-09-09T04:13:29;21.00;90.00
57410;DHT22;46044;44.738;20.394;2022-09-09T04:15:59;21.00;92.00
57410;DHT22;46044;44.738;20.394;2022-09-09T04:18:25;20.00;93.00
57410;DHT22;46044;44.738;20.394;2022-09-09T04:20:52;20.00;93.00
57410;DHT22;46044;44.738;20.394;2022-09-09T04:23:21;20.00;93.00
57410;DHT22;46044;44.738;20.394;2022-09-09T04:25:50;20.00;93.00
57410;DHT22;46044;44.738;20.394;2022-09-09T04:28:19;20.00;93.00
57410;DHT22;46044;44.738;20.394;2022-09-09T04:30:46;20.00;93.00
57410;DHT22;46044;44.738;20.394;2022-09-09T04:33:13;20.00;93.00
57410;DHT22;46044;44.738;20.394;2022-09-09T04:35:44;20.00;93.00
57410;DHT22;46044;44.738;20.394;2022-09-09T04:38:11;20.00;93.00
57410;DHT22;46044;44.738;20.394;2022-09-09T04:40:37;20.00;93.00
57410;DHT22;46044;44.738;20.394;2022-09-09T04:43:09;20.00;93.00
57410;DHT22;46044;44.738;20.394;2022-09-09T04:45:35;21.00;94.00
57410;DHT22;46044;44.738;20.394;2022-09-09T04:48:02;21.00;94.00
57410;DHT22;46044;44.738;20.394;2022-09-09T04:50:30;21.00;94.00
57410;DHT22;46044;44.738;20.394;2022-09-09T04:53:01;21.00;94.00
57410;DHT22;46044;44.738;20.394;2022-09-09T04:55:28;21.00;94.00
57410;DHT22;46044;44.738;20.394;2022-09-09T04:57:54;21.00;94.00
57410;DHT22;46044;44.738;20.394;2022-09-09T05:00:21;21.00;94.00
57410;DHT22;46044;44.738;20.394;2022-09-09T05:02:48;21.00;94.00
57410;DHT22;46044;44.738;20.394;2022-09-09T05:05:14;21.00;94.00
57410;DHT22;46044;44.738;20.394;2022-09-09T05:07:41;21.00;94.00
57410;DHT22;46044;44.738;20.394;2022-09-09T05:10:08;21.00;94.00
57410;DHT22;46044;44.738;20.394;2022-09-09T05:12:34;22.00;95.00
57410;DHT22;46044;44.738;20.394;2022-09-09T05:15:01;22.00;95.00
57410;DHT22;46044;44.738;20.394;2022-09-09T05:17:27;22.00;95.00
57410;DHT22;46044;44.738;20.394;2022-09-09T05:19:54;22.00;94.00
57410;DHT22;46044;44.738;20.394;2022-09-09T05:22:21;22.00;94.00
57410;DHT22;46044;44.738;20.394;2022-09-09T05:24:50;22.00;95.00
57410;DHT22;46044;44.738;20.394;2022-09-09T05:27:17;22.00;94.00
57410;DHT22;46044;44.738;20.394;2022-09-09T05:29:46;22.00;94.00
57410;DHT22;46044;44.738;20.394;2022-09-09T05:32:14;22.00;94.00
57410;DHT22;46044;44.738;20.394;2022-09-09T05:34:46;22.00;94.00
57410;DHT22;46044;44.738;20.394;2022-09-09T05:37:13;22.00;94.00
57410;DHT22;46044;44.738;20.394;2022-09-09T05:39:39;22.00;95.00
57410;DHT22;46044;44.738;20.394;2022-09-09T05:42:05;22.00;95.00
57410;DHT22;46044;44.738;20.394;2022-09-09T05:44:32;22.00;95.00
57410;DHT22;46044;44.738;20.394;2022-09-09T05:47:00;22.00;95.00
57410;DHT22;46044;44.738;20.394;2022-09-09T05:49:26;22.00;95.00
57410;DHT22;46044;44.738;20.394;2022-09-09T05:51:52;22.00;95.00
57410;DHT22;46044;44.738;20.394;2022-09-09T05:54:20;22.00;95.00
57410;DHT22;46044;44.738;20.394;2022-09-09T05:56:49;22.00;95.00
57410;DHT22;46044;44.738;20.394;2022-09-09T05:59:16;22.00;95.00
57410;DHT22;46044;44.738;20.394;2022-09-09T06:01:42;22.00;94.00
57410;DHT22;46044;44.738;20.394;2022-09-09T06:04:16;23.00;94.00
57410;DHT22;46044;44.738;20.394;2022-09-09T06:06:42;23.00;94.00
57410;DHT22;46044;44.738;20.394;2022-09-09T06:09:13;23.00;93.00
57410;DHT22;46044;44.738;20.394;2022-09-09T06:11:41;23.00;92.00
57410;DHT22;46044;44.738;20.394;2022-09-09T06:14:10;23.00;91.00
57410;DHT22;46044;44.738;20.394;2022-09-09T06:16:37;23.00;91.00
57410;DHT22;46044;44.738;20.394;2022-09-09T06:19:14;23.00;90.00
57410;DHT22;46044;44.738;20.394;2022-09-09T06:21:40;23.00;90.00
57410;DHT22;46044;44.738;20.394;2022-09-09T06:24:08;23.00;89.00
57410;DHT22;46044;44.738;20.394;2022-09-09T06:26:37;23.00;89.00
57410;DHT22;46044;44.738;20.394;2022-09-09T06:29:05;23.00;89.00
57410;DHT22;46044;44.738;20.394;2022-09-09T06:31:32;23.00;89.00
57410;DHT22;46044;44.738;20.394;2022-09-09T06:34:07;23.00;89.00
57410;DHT22;46044;44.738;20.394;2022-09-09T06:36:38;23.00;88.00
57410;DHT22;46044;44.738;20.394;2022-09-09T06:39:05;23.00;88.00
57410;DHT22;46044;44.738;20.394;2022-09-09T06:41:33;23.00;88.00
57410;DHT22;46044;44.738;20.394;2022-09-09T06:44:01;23.00;89.00
57410;DHT22;46044;44.738;20.394;2022-09-09T06:46:38;23.00;90.00
57410;DHT22;46044;44.738;20.394;2022-09-09T06:49:08;22.00;92.00
57410;DHT22;46044;44.738;20.394;2022-09-09T06:51:36;22.00;93.00
57410;DHT22;46044;44.738;20.394;2022-09-09T06:54:04;22.00;94.00
57410;DHT22;46044;44.738;20.394;2022-09-09T06:56:32;22.00;94.00
57410;DHT22;46044;44.738;20.394;2022-09-09T06:59:04;22.00;95.00
57410;DHT22;46044;44.738;20.394;2022-09-09T07:01:44;22.00;95.00
57410;DHT22;46044;44.738;20.394;2022-09-09T07:04:12;22.00;95.00
57410;DHT22;46044;44.738;20.394;2022-09-09T07:06:43;22.00;95.00
57410;DHT22;46044;44.738;20.394;2022-09-09T07:15:05;22.00;95.00
57410;DHT22;46044;44.738;20.394;2022-09-09T07:17:31;22.00;95.00
57410;DHT22;46044;44.738;20.394;2022-09-09T07:20:00;22.00;94.00
57410;DHT22;46044;44.738;20.394;2022-09-09T07:22:27;22.00;94.00
57410;DHT22;46044;44.738;20.394;2022-09-09T07:24:54;22.00;94.00
57410;DHT22;46044;44.738;20.394;2022-09-09T07:27:20;22.00;94.00
57410;DHT22;46044;44.738;20.394;2022-09-09T07:29:48;22.00;94.00
57410;DHT22;46044;44.738;20.394;2022-09-09T07:32:15;22.00;94.00
57410;DHT22;46044;44.738;20.394;2022-09-09T07:34:42;22.00;94.00
57410;DHT22;46044;44.738;20.394;2022-09-09T07:37:09;22.00;94.00
57410;DHT22;46044;44.738;20.394;2022-09-09T07:39:39;22.00;94.00
57410;DHT22;46044;44.738;20.394;2022-09-09T07:42:06;22.00;94.00
57410;DHT22;46044;44.738;20.394;2022-09-09T07:44:36;22.00;94.00
57410;DHT22;46044;44.738;20.394;2022-09-09T07:47:09;22.00;94.00
57410;DHT22;46044;44.738;20.394;2022-09-09T07:49:42;22.00;94.00
57410;DHT22;46044;44.738;20.394;2022-09-09T07:52:09;22.00;94.00
57410;DHT22;46044;44.738;20.394;2022-09-09T07:54:37;22.00;94.00
57410;DHT22;46044;44.738;20.394;2022-09-09T07:57:05;22.00;94.00
57410;DHT22;46044;44.738;20.394;2022-09-09T07:59:34;22.00;94.00
57410;DHT22;46044;44.738;20.394;2022-09-09T08:02:01;22.00;94.00
57410;DHT22;46044;44.738;20.394;2022-09-09T08:04:30;22.00;94.00
57410;DHT22;46044;44.738;20.394;2022-09-09T08:06:58;22.00;93.00
57410;DHT22;46044;44.738;20.394;2022-09-09T08:09:26;22.00;93.00
57410;DHT22;46044;44.738;20.394;2022-09-09T08:11:57;22.00;93.00
57410;DHT22;46044;44.738;20.394;2022-09-09T08:14:24;22.00;93.00
57410;DHT22;46044;44.738;20.394;2022-09-09T08:16:50;22.00;93.00
57410;DHT22;46044;44.738;20.394;2022-09-09T08:19:20;22.00;93.00
57410;DHT22;46044;44.738;20.394;2022-09-09T08:21:46;23.00;92.00
57410;DHT22;46044;44.738;20.394;2022-09-09T08:24:14;23.00;92.00
57410;DHT22;46044;44.738;20.394;2022-09-09T08:26:45;23.00;92.00
57410;DHT22;46044;44.738;20.394;2022-09-09T08:29:13;23.00;91.00
57410;DHT22;46044;44.738;20.394;2022-09-09T08:31:48;23.00;91.00
57410;DHT22;46044;44.738;20.394;2022-09-09T08:34:15;23.00;90.00
57410;DHT22;46044;44.738;20.394;2022-09-09T08:36:44;24.00;90.00
57410;DHT22;46044;44.738;20.394;2022-09-09T08:39:13;24.00;89.00
57410;DHT22;46044;44.738;20.394;2022-09-09T08:47:42;25.00;84.00
57410;DHT22;46044;44.738;20.394;2022-09-09T08:55:52;26.00;81.00
57410;DHT22;46044;44.738;20.394;2022-09-09T08:58:32;26.00;78.00
57410;DHT22;46044;44.738;20.394;2022-09-09T09:04:02;27.00;78.00
57410;DHT22;46044;44.738;20.394;2022-09-09T09:09:30;27.00;76.00
57410;DHT22;46044;44.738;20.394;2022-09-09T09:12:13;27.00;74.00
57410;DHT22;46044;44.738;20.394;2022-09-09T09:14:43;27.00;74.00
57410;DHT22;46044;44.738;20.394;2022-09-09T09:17:14;27.00;74.00
57410;DHT22;46044;44.738;20.394;2022-09-09T09:19:42;27.00;74.00
57410;DHT22;46044;44.738;20.394;2022-09-09T09:22:18;28.00;75.00
57410;DHT22;46044;44.738;20.394;2022-09-09T09:25:05;28.00;74.00
57410;DHT22;46044;44.738;20.394;2022-09-09T09:27:46;28.00;74.00
57410;DHT22;46044;44.738;20.394;2022-09-09T09:30:26;28.00;73.00
57410;DHT22;46044;44.738;20.394;2022-09-09T09:33:02;28.00;72.00
57410;DHT22;46044;44.738;20.394;2022-09-09T09:35:32;28.00;72.00
57410;DHT22;46044;44.738;20.394;2022-09-09T09:37:59;28.00;72.00
57410;DHT22;46044;44.738;20.394;2022-09-09T09:40:27;28.00;72.00
57410;DHT22;46044;44.738;20.394;2022-09-09T09:42:58;28.00;70.00
57410;DHT22;46044;44.738;20.394;2022-09-09T09:45:44;29.00;69.00
57410;DHT22;46044;44.738;20.394;2022-09-09T09:48:13;28.00;69.00
57410;DHT22;46044;44.738;20.394;2022-09-09T09:53:32;28.00;69.00
57410;DHT22;46044;44.738;20.394;2022-09-09T09:56:10;29.00;70.00
57410;DHT22;46044;44.738;20.394;2022-09-09T10:01:24;28.00;70.00
57410;DHT22;46044;44.738;20.394;2022-09-09T10:03:52;27.00;70.00
57410;DHT22;46044;44.738;20.394;2022-09-09T10:06:36;28.00;71.00
57410;DHT22;46044;44.738;20.394;2022-09-09T10:09:20;28.00;70.00
57410;DHT22;46044;44.738;20.394;2022-09-09T10:14:33;27.00;69.00
57410;DHT22;46044;44.738;20.394;2022-09-09T10:22:28;29.00;64.00
57410;DHT22;46044;44.738;20.394;2022-09-09T10:25:30;30.00;62.00
57410;DHT22;46044;44.738;20.394;2022-09-09T10:33:44;29.00;68.00
57410;DHT22;46044;44.738;20.394;2022-09-09T10:36:24;29.00;67.00
57410;DHT22;46044;44.738;20.394;2022-09-09T10:39:05;29.00;67.00
57410;DHT22;46044;44.738;20.394;2022-09-09T10:41:59;29.00;67.00
57410;DHT22;46044;44.738;20.394;2022-09-09T10:44:38;28.00;66.00
57410;DHT22;46044;44.738;20.394;2022-09-09T10:50:34;28.00;66.00
57410;DHT22;46044;44.738;20.394;2022-09-09T10:55:44;28.00;66.00
57410;DHT22;46044;44.738;20.394;2022-09-09T10:58:20;28.00;66.00
57410;DHT22;46044;44.738;20.394;2022-09-09T11:00:52;28.00;67.00
57410;DHT22;46044;44.738;20.394;2022-09-09T11:03:25;28.00;65.00
57410;DHT22;46044;44.738;20.394;2022-09-09T11:05:57;28.00;64.00
57410;DHT22;46044;44.738;20.394;2022-09-09T11:08:34;28.00;64.00
57410;DHT22;46044;44.738;20.394;2022-09-09T11:11:12;28.00;64.00
57410;DHT22;46044;44.738;20.394;2022-09-09T11:13:55;28.00;64.00
57410;DHT22;46044;44.738;20.394;2022-09-09T11:16:50;29.00;66.00
57410;DHT22;46044;44.738;20.394;2022-09-09T11:19:39;29.00;65.00
57410;DHT22;46044;44.738;20.394;2022-09-09T11:22:30;29.00;63.00
57410;DHT22;46044;44.738;20.394;2022-09-09T11:25:36;29.00;62.00
57410;DHT22;46044;44.738;20.394;2022-09-09T11:33:18;29.00;63.00
57410;DHT22;46044;44.738;20.394;2022-09-09T11:36:15;29.00;63.00
57410;DHT22;46044;44.738;20.394;2022-09-09T11:41:44;28.00;64.00
57410;DHT22;46044;44.738;20.394;2022-09-09T11:44:12;29.00;65.00
57410;DHT22;46044;44.738;20.394;2022-09-09T11:46:43;28.00;64.00
57410;DHT22;46044;44.738;20.394;2022-09-09T11:49:29;28.00;64.00
57410;DHT22;46044;44.738;20.394;2022-09-09T11:52:39;28.00;63.00
57410;DHT22;46044;44.738;20.394;2022-09-09T11:55:28;28.00;64.00
57410;DHT22;46044;44.738;20.394;2022-09-09T11:58:00;28.00;64.00
57410;DHT22;46044;44.738;20.394;2022-09-09T12:00:39;28.00;64.00
57410;DHT22;46044;44.738;20.394;2022-09-09T12:06:27;29.00;64.00
57410;DHT22;46044;44.738;20.394;2022-09-09T12:11:49;28.00;62.00
57410;DHT22;46044;44.738;20.394;2022-09-09T12:14:34;28.00;63.00
57410;DHT22;46044;44.738;20.394;2022-09-09T12:17:16;29.00;63.00
57410;DHT22;46044;44.738;20.394;2022-09-09T12:19:42;29.00;63.00
57410;DHT22;46044;44.738;20.394;2022-09-09T12:24:53;29.00;62.00
57410;DHT22;46044;44.738;20.394;2022-09-09T12:30:16;29.00;62.00
57410;DHT22;46044;44.738;20.394;2022-09-09T12:32:43;29.00;61.00
57410;DHT22;46044;44.738;20.394;2022-09-09T12:35:12;29.00;61.00
57410;DHT22;46044;44.738;20.394;2022-09-09T12:37:52;29.00;61.00
57410;DHT22;46044;44.738;20.394;2022-09-09T12:40:25;28.00;61.00
57410;DHT22;46044;44.738;20.394;2022-09-09T12:42:51;28.00;62.00
57410;DHT22;46044;44.738;20.394;2022-09-09T12:45:20;28.00;63.00
57410;DHT22;46044;44.738;20.394;2022-09-09T12:50:25;29.00;63.00
57410;DHT22;46044;44.738;20.394;2022-09-09T12:52:56;29.00;62.00
57410;DHT22;46044;44.738;20.394;2022-09-09T12:55:32;29.00;62.00
57410;DHT22;46044;44.738;20.394;2022-09-09T12:58:04;29.00;60.00
57410;DHT22;46044;44.738;20.394;2022-09-09T13:00:35;29.00;60.00
57410;DHT22;46044;44.738;20.394;2022-09-09T13:03:16;29.00;60.00
57410;DHT22;46044;44.738;20.394;2022-09-09T13:05:42;29.00;60.00
57410;DHT22;46044;44.738;20.394;2022-09-09T13:08:13;29.00;61.00
57410;DHT22;46044;44.738;20.394;2022-09-09T13:10:49;29.00;61.00
57410;DHT22;46044;44.738;20.394;2022-09-09T13:13:20;29.00;62.00
57410;DHT22;46044;44.738;20.394;2022-09-09T13:15:53;29.00;61.00
57410;DHT22;46044;44.738;20.394;2022-09-09T13:18:42;29.00;62.00
57410;DHT22;46044;44.738;20.394;2022-09-09T13:21:08;29.00;61.00
57410;DHT22;46044;44.738;20.394;2022-09-09T13:23:36;29.00;61.00
57410;DHT22;46044;44.738;20.394;2022-09-09T13:28:30;29.00;60.00
57410;DHT22;46044;44.738;20.394;2022-09-09T13:31:04;29.00;61.00
57410;DHT22;46044;44.738;20.394;2022-09-09T13:33:37;29.00;61.00
57410;DHT22;46044;44.738;20.394;2022-09-09T13:36:09;29.00;61.00
57410;DHT22;46044;44.738;20.394;2022-09-09T13:38:53;29.00;61.00
57410;DHT22;46044;44.738;20.394;2022-09-09T13:41:25;29.00;61.00
57410;DHT22;46044;44.738;20.394;2022-09-09T13:43:52;29.00;60.00
57410;DHT22;46044;44.738;20.394;2022-09-09T13:46:37;29.00;60.00
57410;DHT22;46044;44.738;20.394;2022-09-09T13:51:43;29.00;60.00
57410;DHT22;46044;44.738;20.394;2022-09-09T13:54:15;29.00;59.00
57410;DHT22;46044;44.738;20.394;2022-09-09T13:56:42;29.00;59.00
57410;DHT22;46044;44.738;20.394;2022-09-09T13:59:12;29.00;59.00
57410;DHT22;46044;44.738;20.394;2022-09-09T14:01:38;28.00;58.00
57410;DHT22;46044;44.738;20.394;2022-09-09T14:04:05;28.00;58.00
57410;DHT22;46044;44.738;20.394;2022-09-09T14:06:32;28.00;58.00
57410;DHT22;46044;44.738;20.394;2022-09-09T14:08:58;28.00;59.00
57410;DHT22;46044;44.738;20.394;2022-09-09T14:11:24;28.00;59.00
57410;DHT22;46044;44.738;20.394;2022-09-09T14:13:50;28.00;58.00
57410;DHT22;46044;44.738;20.394;2022-09-09T14:16:17;28.00;58.00
57410;DHT22;46044;44.738;20.394;2022-09-09T14:18:44;28.00;59.00
57410;DHT22;46044;44.738;20.394;2022-09-09T14:21:11;28.00;59.00
57410;DHT22;46044;44.738;20.394;2022-09-09T14:23:38;28.00;59.00
57410;DHT22;46044;44.738;20.394;2022-09-09T14:26:04;28.00;59.00
57410;DHT22;46044;44.738;20.394;2022-09-09T14:28:30;28.00;59.00
57410;DHT22;46044;44.738;20.394;2022-09-09T14:31:00;28.00;59.00
57410;DHT22;46044;44.738;20.394;2022-09-09T14:33:26;28.00;59.00
57410;DHT22;46044;44.738;20.394;2022-09-09T14:36:00;28.00;59.00
57410;DHT22;46044;44.738;20.394;2022-09-09T14:38:34;28.00;59.00
57410;DHT22;46044;44.738;20.394;2022-09-09T14:41:05;28.00;59.00
57410;DHT22;46044;44.738;20.394;2022-09-09T14:43:31;28.00;58.00
57410;DHT22;46044;44.738;20.394;2022-09-09T14:46:08;28.00;59.00
57410;DHT22;46044;44.738;20.394;2022-09-09T14:48:35;28.00;58.00
57410;DHT22;46044;44.738;20.394;2022-09-09T14:51:15;28.00;58.00
57410;DHT22;46044;44.738;20.394;2022-09-09T14:53:42;28.00;59.00
57410;DHT22;46044;44.738;20.394;2022-09-09T14:56:12;28.00;58.00
57410;DHT22;46044;44.738;20.394;2022-09-09T14:58:38;28.00;58.00
57410;DHT22;46044;44.738;20.394;2022-09-09T15:01:06;28.00;58.00
57410;DHT22;46044;44.738;20.394;2022-09-09T15:03:32;28.00;58.00
57410;DHT22;46044;44.738;20.394;2022-09-09T15:06:05;28.00;58.00
57410;DHT22;46044;44.738;20.394;2022-09-09T15:08:31;28.00;59.00
57410;DHT22;46044;44.738;20.394;2022-09-09T15:11:04;28.00;59.00
57410;DHT22;46044;44.738;20.394;2022-09-09T15:13:30;28.00;59.00
57410;DHT22;46044;44.738;20.394;2022-09-09T15:15:56;28.00;59.00
57410;DHT22;46044;44.738;20.394;2022-09-09T15:18:28;28.00;59.00
57410;DHT22;46044;44.738;20.394;2022-09-09T15:20:54;28.00;60.00
57410;DHT22;46044;44.738;20.394;2022-09-09T15:23:20;28.00;60.00
57410;DHT22;46044;44.738;20.394;2022-09-09T15:25:53;28.00;60.00
57410;DHT22;46044;44.738;20.394;2022-09-09T15:28:20;28.00;61.00
57410;DHT22;46044;44.738;20.394;2022-09-09T15:30:50;28.00;61.00
57410;DHT22;46044;44.738;20.394;2022-09-09T15:33:18;28.00;61.00
57410;DHT22;46044;44.738;20.394;2022-09-09T15:35:45;28.00;61.00
57410;DHT22;46044;44.738;20.394;2022-09-09T15:38:11;27.00;60.00
57410;DHT22;46044;44.738;20.394;2022-09-09T15:40:39;27.00;61.00
57410;DHT22;46044;44.738;20.394;2022-09-09T15:43:06;27.00;62.00
57410;DHT22;46044;44.738;20.394;2022-09-09T15:45:33;27.00;63.00
57410;DHT22;46044;44.738;20.394;2022-09-09T15:48:03;27.00;63.00
57410;DHT22;46044;44.738;20.394;2022-09-09T15:50:29;27.00;63.00
57410;DHT22;46044;44.738;20.394;2022-09-09T15:53:01;27.00;63.00
57410;DHT22;46044;44.738;20.394;2022-09-09T15:55:28;27.00;63.00
57410;DHT22;46044;44.738;20.394;2022-09-09T15:57:54;27.00;65.00
57410;DHT22;46044;44.738;20.394;2022-09-09T16:00:20;27.00;65.00
57410;DHT22;46044;44.738;20.394;2022-09-09T16:02:47;27.00;67.00
57410;DHT22;46044;44.738;20.394;2022-09-09T16:05:14;27.00;66.00
57410;DHT22;46044;44.738;20.394;2022-09-09T16:07:39;27.00;67.00
57410;DHT22;46044;44.738;20.394;2022-09-09T16:10:09;27.00;66.00
57410;DHT22;46044;44.738;20.394;2022-09-09T16:12:35;27.00;66.00
57410;DHT22;46044;44.738;20.394;2022-09-09T16:15:02;26.00;66.00
57410;DHT22;46044;44.738;20.394;2022-09-09T16:17:28;26.00;67.00
57410;DHT22;46044;44.738;20.394;2022-09-09T16:19:54;26.00;68.00
57410;DHT22;46044;44.738;20.394;2022-09-09T16:22:20;26.00;69.00
57410;DHT22;46044;44.738;20.394;2022-09-09T16:24:46;26.00;69.00
57410;DHT22;46044;44.738;20.394;2022-09-09T16:27:12;26.00;69.00
57410;DHT22;46044;44.738;20.394;2022-09-09T16:29:38;25.00;69.00
57410;DHT22;46044;44.738;20.394;2022-09-09T16:32:04;25.00;70.00
57410;DHT22;46044;44.738;20.394;2022-09-09T16:34:30;25.00;71.00
57410;DHT22;46044;44.738;20.394;2022-09-09T16:36:56;25.00;72.00
57410;DHT22;46044;44.738;20.394;2022-09-09T16:39:22;25.00;73.00
57410;DHT22;46044;44.738;20.394;2022-09-09T16:41:48;25.00;74.00
57410;DHT22;46044;44.738;20.394;2022-09-09T16:44:15;24.00;75.00
57410;DHT22;46044;44.738;20.394;2022-09-09T16:46:44;24.00;76.00
57410;DHT22;46044;44.738;20.394;2022-09-09T16:49:12;24.00;77.00
57410;DHT22;46044;44.738;20.394;2022-09-09T16:51:49;24.00;77.00
57410;DHT22;46044;44.738;20.394;2022-09-09T16:54:18;24.00;78.00
57410;DHT22;46044;44.738;20.394;2022-09-09T16:56:47;24.00;78.00
57410;DHT22;46044;44.738;20.394;2022-09-09T16:59:18;24.00;78.00
57410;DHT22;46044;44.738;20.394;2022-09-09T17:01:46;24.00;78.00
57410;DHT22;46044;44.738;20.394;2022-09-09T17:04:14;24.00;79.00
57410;DHT22;46044;44.738;20.394;2022-09-09T17:06:47;24.00;79.00
57410;DHT22;46044;44.738;20.394;2022-09-09T17:09:15;23.00;79.00
57410;DHT22;46044;44.738;20.394;2022-09-09T17:11:41;23.00;80.00
57410;DHT22;46044;44.738;20.394;2022-09-09T17:14:09;23.00;80.00
57410;DHT22;46044;44.738;20.394;2022-09-09T17:16:36;23.00;81.00
57410;DHT22;46044;44.738;20.394;2022-09-09T17:19:05;23.00;81.00
57410;DHT22;46044;44.738;20.394;2022-09-09T17:21:32;23.00;81.00
57410;DHT22;46044;44.738;20.394;2022-09-09T17:23:58;23.00;81.00
57410;DHT22;46044;44.738;20.394;2022-09-09T17:26:30;23.00;81.00
57410;DHT22;46044;44.738;20.394;2022-09-09T17:28:59;23.00;81.00
57410;DHT22;46044;44.738;20.394;2022-09-09T17:31:26;23.00;80.00
57410;DHT22;46044;44.738;20.394;2022-09-09T17:33:54;23.00;80.00
57410;DHT22;46044;44.738;20.394;2022-09-09T17:36:23;23.00;80.00
57410;DHT22;46044;44.738;20.394;2022-09-09T17:38:50;23.00;80.00
57410;DHT22;46044;44.738;20.394;2022-09-09T17:41:23;23.00;80.00
57410;DHT22;46044;44.738;20.394;2022-09-09T17:43:50;23.00;80.00